Time;durP1;ratioP1;P1;durP2;ratioP2;P2;SDS_P1;SDS_P2;PMS_P1;PMS_P2;Temp;Humidity;BMP_temperature;BMP_pressure;BME280_temperature;BME280_humidity;BME280_pressure;Samples;Min_cycle;Max_cycle;Signal;HPM_P1;HPM_P2
2021/07/08 00:01:04;;;;;;;9.98;6.35;;;;;;;;;;5117732;28;20475;-62
2021/07/08 00:03:30;;;;;;;10.10;6.55;;;;;;;;;;5099699;28;20023;-62
2021/07/08 00:05:56;;;;;;;8.93;6.20;;;;;;;;;;5117943;28;20028;-62
2021/07/08 00:08:22;;;;;;;9.10;6.25;;;;;;;;;;5117838;28;20031;-62
2021/07/08 00:10:51;;;;;;;9.68;6.07;;;;;;;;;;5117546;28;20464;-62
2021/07/08 00:13:18;;;;;;;10.45;6.22;;;;;;;;;;5099637;28;20028;-62
2021/07/08 00:15:44;;;;;;;8.85;6.47;;;;;;;;;;5099238;28;20478;-62
2021/07/08 00:18:11;;;;;;;11.27;6.50;;;;;;;;;;5099075;28;20032;-62
2021/07/08 00:20:38;;;;;;;10.18;6.28;;;;;;;;;;5116992;28;20028;-62
2021/07/08 00:23:04;;;;;;;10.75;6.30;;;;;;;;;;5117587;28;20027;-62
2021/07/08 00:25:30;;;;;;;10.27;6.72;;;;;;;;;;5117526;28;20542;-62
2021/07/08 00:27:57;;;;;;;9.88;6.22;;;;;;;;;;5099242;28;20077;-62
2021/07/08 00:30:23;;;;;;;9.93;6.57;;;;;;;;;;5117712;28;20020;-62
2021/07/08 00:32:50;;;;;;;11.18;6.53;;;;;;;;;;5116282;28;20106;-62
2021/07/08 00:35:16;;;;;;;9.40;6.45;;;;;;;;;;5116154;28;20051;-63
2021/07/08 00:37:43;;;;;;;9.50;6.65;;;;;;;;;;5117507;28;20024;-63
2021/07/08 00:40:10;;;;;;;11.45;7.15;;;;;;;;;;5116432;28;20088;-63
2021/07/08 00:42:36;;;;;;;12.48;7.65;;;;;;;;;;5117827;28;20020;-63
2021/07/08 00:45:04;;;;;;;11.27;6.70;;;;;;;;;;5117452;28;20024;-63
2021/07/08 00:47:30;;;;;;;11.20;6.85;;;;;;;;;;5116860;28;20069;-63
2021/07/08 00:49:56;;;;;;;11.45;7.47;;;;;;;;;;5116794;28;20028;-63
2021/07/08 00:52:22;;;;;;;11.18;7.78;;;;;;;;;;5117039;28;20019;-63
2021/07/08 00:54:48;;;;;;;12.32;7.65;;;;;;;;;;5117020;28;20034;-63
2021/07/08 00:57:14;;;;;;;10.88;7.75;;;;;;;;;;5117404;28;20508;-63
2021/07/08 00:59:44;;;;;;;11.60;7.53;;;;;;;;;;5116662;28;20024;-63
2021/07/08 01:02:14;;;;;;;12.30;7.60;;;;;;;;;;5116784;28;20364;-63
2021/07/08 01:04:44;;;;;;;10.27;7.57;;;;;;;;;;5098509;28;20353;-63
2021/07/08 01:07:11;;;;;;;10.48;7.32;;;;;;;;;;5117019;28;20073;-63
2021/07/08 01:09:38;;;;;;;11.82;7.57;;;;;;;;;;5116924;28;20019;-63
2021/07/08 01:12:04;;;;;;;11.98;7.45;;;;;;;;;;5117158;28;20031;-63
2021/07/08 01:14:30;;;;;;;10.60;6.95;;;;;;;;;;5116602;28;20035;-63
2021/07/08 01:16:56;;;;;;;10.80;7.85;;;;;;;;;;5116475;28;20112;-63
2021/07/08 01:19:23;;;;;;;12.38;7.45;;;;;;;;;;5099120;28;20411;-63
2021/07/08 01:21:50;;;;;;;10.93;7.45;;;;;;;;;;5117047;28;20110;-63
2021/07/08 01:24:16;;;;;;;10.35;6.57;;;;;;;;;;5116453;28;20031;-64
2021/07/08 01:26:42;;;;;;;10.43;7.40;;;;;;;;;;5116641;28;20512;-63
2021/07/08 01:29:08;;;;;;;10.38;7.55;;;;;;;;;;5116277;28;20382;-63
2021/07/08 01:31:34;;;;;;;10.15;7.47;;;;;;;;;;5116832;28;20176;-63
2021/07/08 01:34:00;;;;;;;12.40;7.97;;;;;;;;;;5097982;28;20495;-63
2021/07/08 01:36:26;;;;;;;11.48;7.80;;;;;;;;;;5116111;28;20057;-63
2021/07/08 01:38:52;;;;;;;10.77;7.47;;;;;;;;;;5116289;28;20031;-63
2021/07/08 01:41:18;;;;;;;10.23;7.55;;;;;;;;;;5115845;28;20035;-63
2021/07/08 01:43:45;;;;;;;11.35;7.68;;;;;;;;;;5116336;28;20039;-63
2021/07/08 01:46:12;;;;;;;14.73;8.18;;;;;;;;;;5116250;28;20030;-63
2021/07/08 01:48:39;;;;;;;12.02;7.90;;;;;;;;;;5116242;28;20031;-63
2021/07/08 01:51:16;;;;;;;10.60;7.63;;;;;;;;;;5115545;28;20118;-63
2021/07/08 01:53:42;;;;;;;11.85;8.00;;;;;;;;;;5115524;28;20031;-63
2021/07/08 01:56:08;;;;;;;12.02;7.60;;;;;;;;;;5114984;28;20034;-63
2021/07/08 01:58:34;;;;;;;10.75;7.03;;;;;;;;;;5116059;28;20034;-63
2021/07/08 02:01:00;;;;;;;11.20;7.30;;;;;;;;;;5115978;28;20024;-63
2021/07/08 02:03:26;;;;;;;12.38;7.97;;;;;;;;;;5116169;28;20475;-63
2021/07/08 02:05:52;;;;;;;10.10;7.35;;;;;;;;;;5115607;28;20023;-63
2021/07/08 02:08:18;;;;;;;11.15;7.43;;;;;;;;;;5115267;28;20024;-63
2021/07/08 02:10:44;;;;;;;10.68;7.53;;;;;;;;;;5115516;28;20019;-63
2021/07/08 02:13:11;;;;;;;11.88;7.90;;;;;;;;;;5116015;28;20027;-63
2021/07/08 02:15:37;;;;;;;12.10;7.97;;;;;;;;;;5096942;28;20026;-63
2021/07/08 02:18:04;;;;;;;11.27;8.07;;;;;;;;;;5115601;28;20057;-63
2021/07/08 02:20:30;;;;;;;12.55;8.75;;;;;;;;;;5115601;28;20033;-63
2021/07/08 02:22:56;;;;;;;11.45;7.47;;;;;;;;;;5114818;28;20031;-63
2021/07/08 02:25:22;;;;;;;11.95;8.05;;;;;;;;;;5115216;28;20031;-63
2021/07/08 02:27:49;;;;;;;10.95;8.32;;;;;;;;;;5115669;28;20360;-63
2021/07/08 02:30:17;;;;;;;9.80;6.93;;;;;;;;;;5115158;28;20051;-63
2021/07/08 02:32:44;;;;;;;12.23;7.47;;;;;;;;;;5096793;28;20468;-63
2021/07/08 02:35:11;;;;;;;9.88;7.07;;;;;;;;;;5095887;28;20115;-63
2021/07/08 02:37:38;;;;;;;9.27;6.70;;;;;;;;;;5114942;28;20032;-63
2021/07/08 02:40:08;;;;;;;8.95;6.65;;;;;;;;;;5115236;28;20035;-63
2021/07/08 02:42:34;;;;;;;9.75;6.20;;;;;;;;;;5115790;28;20111;-63
2021/07/08 02:45:00;;;;;;;12.32;6.53;;;;;;;;;;5115152;28;20035;-63
2021/07/08 02:47:27;;;;;;;9.85;6.40;;;;;;;;;;5114151;28;20028;-63
2021/07/08 02:49:53;;;;;;;9.75;6.28;;;;;;;;;;5115226;27;20042;-63
2021/07/08 02:52:19;;;;;;;8.85;5.65;;;;;;;;;;5128101;27;20038;-63
2021/07/08 02:54:45;;;;;;;9.13;6.35;;;;;;;;;;5114444;28;20410;-63
2021/07/08 02:57:10;;;;;;;10.50;6.43;;;;;;;;;;5114591;28;20031;-63
2021/07/08 02:59:36;;;;;;;9.73;6.47;;;;;;;;;;5114900;28;20032;-64
2021/07/08 03:02:03;;;;;;;9.23;6.22;;;;;;;;;;5113624;28;20460;-63
2021/07/08 03:04:29;;;;;;;9.38;6.03;;;;;;;;;;5114856;28;20118;-63
2021/07/08 03:06:55;;;;;;;10.27;6.07;;;;;;;;;;5114297;28;20055;-62
2021/07/08 03:09:21;;;;;;;9.75;5.85;;;;;;;;;;5114240;28;20468;-62
2021/07/08 03:11:47;;;;;;;7.50;5.30;;;;;;;;;;5114194;28;20070;-62
2021/07/08 03:14:13;;;;;;;9.07;5.45;;;;;;;;;;5095921;28;20027;-62
2021/07/08 03:16:39;;;;;;;8.48;5.47;;;;;;;;;;5114231;28;20043;-62
2021/07/08 03:19:05;;;;;;;7.93;5.32;;;;;;;;;;5114138;28;20031;-61
2021/07/08 03:21:31;;;;;;;7.82;4.93;;;;;;;;;;5114674;28;20069;-63
2021/07/08 03:23:57;;;;;;;8.13;5.07;;;;;;;;;;5114645;28;20027;-63
2021/07/08 03:26:23;;;;;;;7.70;4.80;;;;;;;;;;5114615;28;20024;-63
2021/07/08 03:28:49;;;;;;;7.82;5.40;;;;;;;;;;5114016;28;20375;-63
2021/07/08 03:31:18;;;;;;;7.63;4.30;;;;;;;;;;5114048;28;20027;-63
2021/07/08 03:33:44;;;;;;;7.47;4.43;;;;;;;;;;5116973;28;20032;-63
2021/07/08 03:36:10;;;;;;;7.03;4.75;;;;;;;;;;5118525;28;20031;-64
2021/07/08 03:38:36;;;;;;;6.85;4.57;;;;;;;;;;5118756;28;20035;-63
2021/07/08 03:41:02;;;;;;;6.03;3.95;;;;;;;;;;5129476;27;20023;-63
2021/07/08 03:43:29;;;;;;;6.72;4.40;;;;;;;;;;5138894;27;20062;-63
2021/07/08 03:45:55;;;;;;;8.07;4.20;;;;;;;;;;5138626;27;20035;-63
2021/07/08 03:48:21;;;;;;;7.20;4.47;;;;;;;;;;5138764;27;20023;-63
2021/07/08 03:50:47;;;;;;;6.72;4.18;;;;;;;;;;5138446;27;20034;-63
2021/07/08 03:53:13;;;;;;;6.20;4.25;;;;;;;;;;5137584;27;20459;-63
2021/07/08 03:55:39;;;;;;;8.23;4.53;;;;;;;;;;5138664;27;20035;-63
2021/07/08 03:58:05;;;;;;;6.53;3.78;;;;;;;;;;5138599;27;20035;-63
2021/07/08 04:00:31;;;;;;;6.38;4.15;;;;;;;;;;5138614;27;20167;-63
2021/07/08 04:03:01;;;;;;;6.22;4.00;;;;;;;;;;5138583;27;20034;-63
2021/07/08 04:05:27;;;;;;;6.35;3.92;;;;;;;;;;5139413;27;20067;-64
2021/07/08 04:07:53;;;;;;;7.65;3.97;;;;;;;;;;5138187;27;20102;-63
2021/07/08 04:10:19;;;;;;;6.63;4.00;;;;;;;;;;5138731;27;20038;-64
2021/07/08 04:12:46;;;;;;;7.50;4.13;;;;;;;;;;5138986;27;20114;-64
2021/07/08 04:15:13;;;;;;;8.45;4.13;;;;;;;;;;5138648;27;20030;-63
2021/07/08 04:17:39;;;;;;;6.65;3.53;;;;;;;;;;5115055;27;20055;-63
2021/07/08 04:20:06;;;;;;;6.45;4.13;;;;;;;;;;5138298;27;20023;-64
2021/07/08 04:22:32;;;;;;;7.35;3.60;;;;;;;;;;5112106;28;20367;-64
2021/07/08 04:24:58;;;;;;;7.53;3.58;;;;;;;;;;5117268;28;20043;-63
2021/07/08 04:27:26;;;;;;;10.73;4.00;;;;;;;;;;5118417;28;20019;-63
2021/07/08 04:29:52;;;;;;;6.03;3.45;;;;;;;;;;5117805;28;20028;-63
2021/07/08 04:32:18;;;;;;;7.28;3.50;;;;;;;;;;5117931;28;20535;-63
2021/07/08 04:34:44;;;;;;;6.28;3.30;;;;;;;;;;5117119;28;20032;-63
2021/07/08 04:37:10;;;;;;;5.40;3.50;;;;;;;;;;5116432;28;20063;-63
2021/07/08 04:39:36;;;;;;;6.03;3.60;;;;;;;;;;5098995;28;20032;-63
2021/07/08 04:42:03;;;;;;;7.72;3.53;;;;;;;;;;5096867;28;20149;-63
2021/07/08 04:44:29;;;;;;;8.27;3.47;;;;;;;;;;5116234;28;20036;-63
2021/07/08 04:46:55;;;;;;;5.93;3.67;;;;;;;;;;5115899;28;20027;-66
2021/07/08 04:49:21;;;;;;;5.82;3.33;;;;;;;;;;5108055;28;20027;-64
2021/07/08 04:51:47;;;;;;;5.78;3.50;;;;;;;;;;5092404;28;20229;-64
2021/07/08 04:54:13;;;;;;;6.97;3.60;;;;;;;;;;5111833;28;20346;-63
2021/07/08 04:56:39;;;;;;;7.38;3.80;;;;;;;;;;5111870;28;20031;-63
2021/07/08 04:59:05;;;;;;;5.38;3.40;;;;;;;;;;5112357;28;20498;-63
2021/07/08 05:01:31;;;;;;;8.00;3.67;;;;;;;;;;5110990;28;20023;-64
2021/07/08 05:04:00;;;;;;;7.13;3.40;;;;;;;;;;5094700;28;20301;-63
2021/07/08 05:06:26;;;;;;;7.00;3.67;;;;;;;;;;5094484;28;20118;-63
2021/07/08 05:08:52;;;;;;;6.78;3.55;;;;;;;;;;5112727;28;20028;-63
2021/07/08 05:11:18;;;;;;;6.53;3.20;;;;;;;;;;5112438;28;20039;-63
2021/07/08 05:13:44;;;;;;;5.57;3.20;;;;;;;;;;5111162;28;20051;-63
2021/07/08 05:16:10;;;;;;;5.63;3.40;;;;;;;;;;5112663;28;20054;-63
2021/07/08 05:18:36;;;;;;;6.30;3.08;;;;;;;;;;5112680;28;20094;-63
2021/07/08 05:21:02;;;;;;;5.55;3.05;;;;;;;;;;5094109;28;20122;-63
2021/07/08 05:23:30;;;;;;;8.45;3.35;;;;;;;;;;5112215;28;20058;-63
2021/07/08 05:25:56;;;;;;;7.05;3.28;;;;;;;;;;5092155;28;20023;-63
2021/07/08 05:28:22;;;;;;;8.93;3.67;;;;;;;;;;5094245;28;20118;-63
2021/07/08 05:30:48;;;;;;;7.15;3.30;;;;;;;;;;5093924;28;20515;-62
2021/07/08 05:33:14;;;;;;;6.93;3.30;;;;;;;;;;5112194;28;20102;-62
2021/07/08 05:35:41;;;;;;;7.00;3.03;;;;;;;;;;5112026;28;20031;-62
2021/07/08 05:38:07;;;;;;;5.50;2.80;;;;;;;;;;5110084;28;20135;-70
2021/07/08 05:40:33;;;;;;;7.50;3.22;;;;;;;;;;5112182;28;20046;-62
2021/07/08 05:42:59;;;;;;;6.07;3.00;;;;;;;;;;5093611;28;20075;-62
2021/07/08 05:45:25;;;;;;;6.15;3.80;;;;;;;;;;5111902;28;20038;-62
2021/07/08 05:47:51;;;;;;;7.15;3.63;;;;;;;;;;5111845;28;20046;-62
2021/07/08 05:50:17;;;;;;;7.53;3.40;;;;;;;;;;5111150;28;20027;-72
2021/07/08 05:52:43;;;;;;;6.32;3.20;;;;;;;;;;5092049;28;20024;-63
2021/07/08 05:55:10;;;;;;;6.72;3.20;;;;;;;;;;5111749;28;20310;-63
2021/07/08 05:57:36;;;;;;;8.40;3.60;;;;;;;;;;5110683;28;20024;-62
2021/07/08 06:00:02;;;;;;;6.72;3.15;;;;;;;;;;5111585;28;20371;-62
2021/07/08 06:02:28;;;;;;;7.07;3.20;;;;;;;;;;5093248;28;20085;-62
2021/07/08 06:04:54;;;;;;;6.72;3.25;;;;;;;;;;5091234;28;20019;-63
2021/07/08 06:07:20;;;;;;;6.60;3.10;;;;;;;;;;5093003;28;20602;-62
2021/07/08 06:09:46;;;;;;;6.45;3.38;;;;;;;;;;5093254;28;20031;-64
2021/07/08 06:12:12;;;;;;;8.68;2.83;;;;;;;;;;5111362;28;20114;-62
2021/07/08 06:14:38;;;;;;;6.15;3.05;;;;;;;;;;5111071;28;20119;-62
2021/07/08 06:17:07;;;;;;;7.05;3.05;;;;;;;;;;5109999;28;20045;-69
2021/07/08 06:19:33;;;;;;;6.18;3.22;;;;;;;;;;5092977;28;20311;-62
2021/07/08 06:21:59;;;;;;;6.55;3.30;;;;;;;;;;5111209;28;20054;-62
2021/07/08 06:24:25;;;;;;;7.90;3.10;;;;;;;;;;5110741;28;20019;-63
2021/07/08 06:26:51;;;;;;;8.27;3.10;;;;;;;;;;5111119;28;20034;-62
2021/07/08 06:29:16;;;;;;;7.78;3.03;;;;;;;;;;5110150;28;20038;-70
2021/07/08 06:31:43;;;;;;;8.40;3.20;;;;;;;;;;5110306;28;20463;-62
2021/07/08 06:34:09;;;;;;;5.78;2.80;;;;;;;;;;5111209;28;20035;-62
2021/07/08 06:36:35;;;;;;;10.68;3.30;;;;;;;;;;5111039;28;20035;-62
2021/07/08 06:39:01;;;;;;;5.50;3.35;;;;;;;;;;5110775;28;20030;-62
2021/07/08 06:41:27;;;;;;;6.43;2.85;;;;;;;;;;5108648;28;20026;-63
2021/07/08 06:43:53;;;;;;;9.95;2.88;;;;;;;;;;5110964;28;20024;-62
2021/07/08 06:46:26;;;;;;;6.72;2.80;;;;;;;;;;5110930;28;20026;-62
2021/07/08 06:48:52;;;;;;;7.30;2.70;;;;;;;;;;5111089;28;20028;-62
2021/07/08 06:51:18;;;;;;;6.30;2.47;;;;;;;;;;5110612;28;20039;-62
2021/07/08 06:53:44;;;;;;;7.28;2.75;;;;;;;;;;5108795;28;20015;-62
2021/07/08 06:56:10;;;;;;;7.72;2.83;;;;;;;;;;5092606;28;20456;-62
2021/07/08 06:58:36;;;;;;;9.57;2.80;;;;;;;;;;5092337;28;20118;-62
2021/07/08 07:01:03;;;;;;;7.07;2.40;;;;;;;;;;5092514;28;20032;-62
2021/07/08 07:03:34;;;;;;;7.07;2.95;;;;;;;;;;5109885;28;20050;-70
2021/07/08 07:06:00;;;;;;;6.75;2.63;;;;;;;;;;5110922;28;20069;-62
2021/07/08 07:08:26;;;;;;;6.72;2.70;;;;;;;;;;5110137;28;20035;-62
2021/07/08 07:10:52;;;;;;;6.35;2.40;;;;;;;;;;5110852;28;20019;-62
2021/07/08 07:13:18;;;;;;;6.68;2.75;;;;;;;;;;5110254;28;20344;-62
2021/07/08 07:15:44;;;;;;;7.00;3.05;;;;;;;;;;5108642;28;20035;-63
2021/07/08 07:18:11;;;;;;;5.65;2.50;;;;;;;;;;5091907;28;20039;-62
2021/07/08 07:20:38;;;;;;;5.72;2.50;;;;;;;;;;5092015;28;20024;-62
2021/07/08 07:23:04;;;;;;;7.28;2.50;;;;;;;;;;5110165;28;20038;-62
2021/07/08 07:25:31;;;;;;;5.43;2.30;;;;;;;;;;5110317;28;20028;-62
2021/07/08 07:27:57;;;;;;;5.03;2.17;;;;;;;;;;5090702;28;20032;-70
2021/07/08 07:30:24;;;;;;;7.05;2.47;;;;;;;;;;5109598;28;20031;-62
2021/07/08 07:32:51;;;;;;;5.40;2.10;;;;;;;;;;5091930;28;20110;-62
2021/07/08 07:35:17;;;;;;;5.53;2.20;;;;;;;;;;5092065;28;20027;-62
2021/07/08 07:37:44;;;;;;;5.82;2.10;;;;;;;;;;5109939;28;20027;-62
2021/07/08 07:40:10;;;;;;;5.75;2.38;;;;;;;;;;5089905;28;20032;-62
2021/07/08 07:42:37;;;;;;;6.93;2.28;;;;;;;;;;5092125;28;20255;-62
2021/07/08 07:45:07;;;;;;;4.53;1.88;;;;;;;;;;5091719;28;20024;-62
2021/07/08 07:47:33;;;;;;;7.30;2.20;;;;;;;;;;5091707;28;20027;-62
2021/07/08 07:49:59;;;;;;;6.72;2.10;;;;;;;;;;5109884;28;20364;-62
2021/07/08 07:52:26;;;;;;;5.47;2.42;;;;;;;;;;5089807;28;20027;-70
2021/07/08 07:54:52;;;;;;;4.95;2.03;;;;;;;;;;5110260;28;20304;-62
2021/07/08 07:57:18;;;;;;;6.53;2.00;;;;;;;;;;5110145;28;20024;-62
2021/07/08 07:59:44;;;;;;;4.80;1.85;;;;;;;;;;5109973;28;20047;-62
2021/07/08 08:02:12;;;;;;;7.75;1.90;;;;;;;;;;5091727;28;20024;-62
2021/07/08 08:04:43;;;;;;;4.93;2.00;;;;;;;;;;5089745;28;20054;-62
2021/07/08 08:09:54;;;;;;;5.13;1.65;;;;;;;;;;5109754;28;20062;-62
2021/07/08 08:12:20;;;;;;;4.97;1.75;;;;;;;;;;5108168;28;20055;-62
2021/07/08 08:14:46;;;;;;;7.45;1.98;;;;;;;;;;5091673;28;20721;-62
2021/07/08 08:17:12;;;;;;;5.10;1.70;;;;;;;;;;5109606;28;20046;-62
2021/07/08 08:19:38;;;;;;;5.50;2.17;;;;;;;;;;5110038;28;20371;-62
2021/07/08 08:22:10;;;;;;;4.85;1.60;;;;;;;;;;5113867;28;20023;-62
2021/07/08 08:24:36;;;;;;;4.45;1.60;;;;;;;;;;5095052;28;20501;-62
2021/07/08 08:27:02;;;;;;;5.30;1.70;;;;;;;;;;5113378;28;20066;-62
2021/07/08 08:29:28;;;;;;;7.35;2.00;;;;;;;;;;5113379;28;20027;-62
2021/07/08 08:31:54;;;;;;;5.40;1.65;;;;;;;;;;5113279;28;20107;-62
2021/07/08 08:34:20;;;;;;;3.72;1.38;;;;;;;;;;5112740;28;20063;-67
2021/07/08 08:36:46;;;;;;;7.55;1.75;;;;;;;;;;5111969;28;20498;-63
2021/07/08 08:39:13;;;;;;;4.85;1.70;;;;;;;;;;5113411;28;20464;-62
2021/07/08 08:41:39;;;;;;;5.57;1.50;;;;;;;;;;5113124;28;20030;-62
2021/07/08 08:44:06;;;;;;;4.45;1.70;;;;;;;;;;5094931;28;20027;-62
2021/07/08 08:46:36;;;;;;;4.90;1.60;;;;;;;;;;5094721;28;20028;-69
2021/07/08 08:49:05;;;;;;;4.10;1.50;;;;;;;;;;5111941;28;20031;-62
2021/07/08 08:51:31;;;;;;;5.57;1.67;;;;;;;;;;5095023;28;20059;-62
2021/07/08 08:53:58;;;;;;;6.57;1.50;;;;;;;;;;5113518;28;20019;-62
2021/07/08 08:56:24;;;;;;;4.15;1.50;;;;;;;;;;5113211;28;20020;-62
2021/07/08 08:58:50;;;;;;;4.32;1.83;;;;;;;;;;5093548;28;20038;-62
2021/07/08 09:01:17;;;;;;;5.75;1.60;;;;;;;;;;5111998;28;20059;-62
2021/07/08 09:03:44;;;;;;;4.25;1.70;;;;;;;;;;5113175;28;20028;-62
2021/07/08 09:06:11;;;;;;;4.40;1.98;;;;;;;;;;5113200;28;20019;-62
2021/07/08 09:08:38;;;;;;;5.63;1.90;;;;;;;;;;5094391;28;20058;-62
2021/07/08 09:11:04;;;;;;;5.70;1.90;;;;;;;;;;5112044;28;20027;-70
2021/07/08 09:13:43;;;;;;;5.32;1.80;;;;;;;;;;5092843;28;20031;-62
2021/07/08 09:16:10;;;;;;;6.45;2.20;;;;;;;;;;5112296;28;20052;-62
2021/07/08 09:18:36;;;;;;;5.18;1.90;;;;;;;;;;5094429;28;20023;-62
2021/07/08 09:21:14;;;;;;;6.95;1.88;;;;;;;;;;5094017;28;20024;-62
2021/07/08 09:23:40;;;;;;;6.15;2.20;;;;;;;;;;5093885;28;20197;-62
2021/07/08 09:26:11;;;;;;;5.10;2.13;;;;;;;;;;5112119;28;20032;-62
2021/07/08 09:28:38;;;;;;;9.70;2.30;;;;;;;;;;5093862;28;20038;-62
2021/07/08 09:31:06;;;;;;;5.47;2.20;;;;;;;;;;5093810;28;20052;-62
2021/07/08 09:33:32;;;;;;;5.30;2.20;;;;;;;;;;5091865;28;20026;-62
2021/07/08 09:36:09;;;;;;;5.32;2.30;;;;;;;;;;5094194;28;20236;-62
2021/07/08 09:38:35;;;;;;;5.10;2.30;;;;;;;;;;5112064;28;20375;-62
2021/07/08 09:41:11;;;;;;;6.78;2.65;;;;;;;;;;5111952;28;20106;-62
2021/07/08 09:43:39;;;;;;;5.40;2.40;;;;;;;;;;5092435;28;20037;-62
2021/07/08 09:46:06;;;;;;;4.55;2.10;;;;;;;;;;5093980;28;20057;-62
2021/07/08 09:48:32;;;;;;;5.55;2.20;;;;;;;;;;5093618;28;20028;-62
2021/07/08 09:50:58;;;;;;;6.82;2.10;;;;;;;;;;5112021;28;20394;-62
2021/07/08 09:53:25;;;;;;;6.57;2.35;;;;;;;;;;5111420;28;20031;-70
2021/07/08 09:56:38;;;;;;;4.75;2.20;;;;;;;;;;5092264;28;20028;-62
2021/07/08 09:58:52;;;;;;;5.97;2.20;;;;;;;;;;5108409;28;20036;-62
2021/07/08 10:01:18;;;;;;;6.30;2.25;;;;;;;;;;5109829;28;20487;-62
2021/07/08 10:03:44;;;;;;;5.65;2.50;;;;;;;;;;5093484;28;20472;-62
2021/07/08 10:06:11;;;;;;;6.03;2.42;;;;;;;;;;5093182;28;20028;-62
2021/07/08 10:08:37;;;;;;;9.18;2.60;;;;;;;;;;5111431;28;20498;-62
2021/07/08 10:11:04;;;;;;;6.22;2.15;;;;;;;;;;5092068;28;20039;-66
2021/07/08 10:13:32;;;;;;;6.47;2.50;;;;;;;;;;5092737;28;20032;-62
2021/07/08 10:15:59;;;;;;;6.15;2.40;;;;;;;;;;5111681;28;20055;-62
2021/07/08 10:18:27;;;;;;;4.63;2.22;;;;;;;;;;5093279;28;20050;-62
2021/07/08 10:20:54;;;;;;;5.03;2.30;;;;;;;;;;5092680;28;20035;-62
2021/07/08 10:23:20;;;;;;;5.32;2.40;;;;;;;;;;5091493;28;20027;-62
2021/07/08 10:25:47;;;;;;;8.48;2.40;;;;;;;;;;5092946;28;20247;-62
2021/07/08 10:28:14;;;;;;;8.57;2.45;;;;;;;;;;5092913;28;20053;-62
2021/07/08 10:30:40;;;;;;;5.85;2.45;;;;;;;;;;5092812;28;20032;-62
2021/07/08 10:33:06;;;;;;;5.32;2.15;;;;;;;;;;5092375;28;20111;-70
2021/07/08 10:35:42;;;;;;;4.93;2.40;;;;;;;;;;5109062;28;20038;-62
2021/07/08 10:38:27;;;;;;;6.60;2.30;;;;;;;;;;5110996;28;20034;-62
2021/07/08 10:40:53;;;;;;;5.70;2.45;;;;;;;;;;5110431;28;20102;-64
2021/07/08 10:43:32;;;;;;;5.60;2.50;;;;;;;;;;5109017;28;20046;-62
2021/07/08 10:46:02;;;;;;;5.95;2.40;;;;;;;;;;5092325;28;20028;-62
2021/07/08 10:48:37;;;;;;;6.18;2.30;;;;;;;;;;5110660;28;20027;-62
2021/07/08 10:51:03;;;;;;;6.30;2.03;;;;;;;;;;5091334;28;20476;-62
2021/07/08 10:53:33;;;;;;;7.68;2.20;;;;;;;;;;5110667;28;20024;-62
2021/07/08 10:56:02;;;;;;;7.15;2.20;;;;;;;;;;5092352;28;20384;-62
2021/07/08 10:58:49;;;;;;;6.38;2.38;;;;;;;;;;5092058;28;20047;-62
2021/07/08 11:01:27;;;;;;;5.65;2.22;;;;;;;;;;5110979;28;20105;-62
2021/07/08 11:03:54;;;;;;;10.52;2.40;;;;;;;;;;5110675;28;20031;-62
2021/07/08 11:06:23;;;;;;;4.18;1.73;;;;;;;;;;5091454;28;20038;-69
2021/07/08 11:08:51;;;;;;;6.90;2.50;;;;;;;;;;5091535;28;20144;-62
2021/07/08 11:11:23;;;;;;;7.32;2.25;;;;;;;;;;5092455;28;20051;-62
2021/07/08 11:14:24;;;;;;;4.93;2.00;;;;;;;;;;5092358;28;20031;-62
2021/07/08 11:16:50;;;;;;;6.50;2.20;;;;;;;;;;5110381;28;20743;-62
2021/07/08 11:19:16;;;;;;;4.45;2.10;;;;;;;;;;5110216;28;20030;-62
2021/07/08 11:21:51;;;;;;;7.25;2.20;;;;;;;;;;5092292;28;20032;-62
2021/07/08 11:24:18;;;;;;;4.90;1.80;;;;;;;;;;5090428;28;20066;-62
2021/07/08 11:26:54;;;;;;;5.03;2.03;;;;;;;;;;5091859;28;20113;-62
2021/07/08 11:29:40;;;;;;;5.18;2.15;;;;;;;;;;5110714;28;20084;-62
2021/07/08 11:32:27;;;;;;;5.55;2.00;;;;;;;;;;5108063;28;20048;-62
2021/07/08 11:35:03;;;;;;;5.07;1.95;;;;;;;;;;5091892;28;20028;-62
2021/07/08 11:37:35;;;;;;;5.30;1.95;;;;;;;;;;5091861;28;20027;-62
2021/07/08 11:40:01;;;;;;;;;;;;;;;;;;5110473;28;20380;-62
2021/07/08 11:42:32;;;;;;;5.65;2.10;;;;;;;;;;5110082;28;19903;-62
2021/07/08 11:45:00;;;;;;;6.63;1.98;;;;;;;;;;5092251;28;20024;-62
2021/07/08 11:47:26;;;;;;;4.65;1.80;;;;;;;;;;5089943;28;20031;-64
2021/07/08 11:49:52;;;;;;;5.57;2.00;;;;;;;;;;5092083;28;20036;-62
2021/07/08 11:52:26;;;;;;;5.60;1.90;;;;;;;;;;5091658;28;20039;-62
2021/07/08 11:54:55;;;;;;;5.30;1.80;;;;;;;;;;5112240;28;20072;-62
2021/07/08 11:57:22;;;;;;;5.70;2.10;;;;;;;;;;5112861;28;20030;-68
2021/07/08 11:59:49;;;;;;;5.95;2.30;;;;;;;;;;5113317;28;20012;-62
2021/07/08 12:02:31;;;;;;;6.53;2.50;;;;;;;;;;5114208;28;20035;-62
2021/07/08 12:05:12;;;;;;;5.30;2.17;;;;;;;;;;5095935;28;20039;-62
2021/07/08 12:07:55;;;;;;;6.30;2.00;;;;;;;;;;5096002;28;20709;-62
2021/07/08 12:10:24;;;;;;;4.78;2.00;;;;;;;;;;5095637;28;20070;-62
2021/07/08 12:12:55;;;;;;;5.55;2.35;;;;;;;;;;5094813;28;20039;-69
2021/07/08 12:15:21;;;;;;;4.53;1.98;;;;;;;;;;5113575;28;20023;-62
2021/07/08 12:17:58;;;;;;;7.75;2.20;;;;;;;;;;5095110;28;20067;-62
2021/07/08 12:20:24;;;;;;;6.32;2.10;;;;;;;;;;5095489;28;20024;-62
2021/07/08 12:23:02;;;;;;;5.03;1.90;;;;;;;;;;5093923;28;20469;-63
2021/07/08 12:25:29;;;;;;;7.22;2.15;;;;;;;;;;5113748;28;20026;-62
2021/07/08 12:27:56;;;;;;;5.65;2.00;;;;;;;;;;5113510;28;20032;-62
2021/07/08 12:30:26;;;;;;;4.88;2.00;;;;;;;;;;5095054;28;20031;-62
2021/07/08 12:33:06;;;;;;;8.60;2.42;;;;;;;;;;5093193;28;20031;-63
2021/07/08 12:35:41;;;;;;;7.22;3.00;;;;;;;;;;5095217;28;20062;-62
2021/07/08 12:38:08;;;;;;;7.05;2.60;;;;;;;;;;5113094;28;20038;-62
2021/07/08 12:40:34;;;;;;;6.47;2.22;;;;;;;;;;5112333;28;20019;-62
2021/07/08 12:43:05;;;;;;;7.07;2.20;;;;;;;;;;5111993;28;20023;-62
2021/07/08 12:45:32;;;;;;;6.55;2.03;;;;;;;;;;5095119;28;20461;-62
2021/07/08 12:47:58;;;;;;;8.18;2.35;;;;;;;;;;5094894;28;20032;-62
2021/07/08 12:50:25;;;;;;;6.97;2.30;;;;;;;;;;5094835;28;20031;-62
2021/07/08 12:52:51;;;;;;;4.80;1.90;;;;;;;;;;5092817;28;20028;-62
2021/07/08 12:55:37;;;;;;;8.27;2.05;;;;;;;;;;5094653;28;20028;-62
2021/07/08 12:58:04;;;;;;;6.15;1.83;;;;;;;;;;5094794;28;20019;-62
2021/07/08 13:00:31;;;;;;;6.45;2.13;;;;;;;;;;5093283;28;20027;-65
2021/07/08 13:02:57;;;;;;;5.00;1.92;;;;;;;;;;5094046;28;20028;-62
2021/07/08 13:05:33;;;;;;;5.30;2.42;;;;;;;;;;5112234;28;20032;-62
2021/07/08 13:07:59;;;;;;;5.88;2.20;;;;;;;;;;5094304;28;20023;-62
2021/07/08 13:10:33;;;;;;;7.45;2.10;;;;;;;;;;5112512;28;20054;-69
2021/07/08 13:13:00;;;;;;;5.63;2.45;;;;;;;;;;5094512;28;20213;-62
2021/07/08 13:15:26;;;;;;;4.68;2.13;;;;;;;;;;5094458;28;20038;-62
2021/07/08 13:18:06;;;;;;;5.25;1.88;;;;;;;;;;5094126;28;20134;-62
2021/07/08 13:20:32;;;;;;;7.03;2.03;;;;;;;;;;5110354;28;20024;-62
2021/07/08 13:23:10;;;;;;;5.15;1.75;;;;;;;;;;5112706;28;20221;-62
2021/07/08 13:25:38;;;;;;;4.28;1.80;;;;;;;;;;5112686;28;20036;-62
2021/07/08 13:28:16;;;;;;;6.60;2.00;;;;;;;;;;5093526;28;20391;-63
2021/07/08 13:30:42;;;;;;;5.40;1.92;;;;;;;;;;5112297;28;20032;-61
2021/07/08 13:33:12;;;;;;;6.63;1.90;;;;;;;;;;5112008;28;20027;-62
2021/07/08 13:35:43;;;;;;;5.38;1.70;;;;;;;;;;5094057;28;20026;-62
2021/07/08 13:38:11;;;;;;;5.60;2.10;;;;;;;;;;5110747;28;20138;-70
2021/07/08 13:40:37;;;;;;;4.00;1.70;;;;;;;;;;5093758;28;20027;-62
2021/07/08 13:43:12;;;;;;;5.28;1.90;;;;;;;;;;5111943;28;20049;-62
2021/07/08 13:45:38;;;;;;;5.10;1.88;;;;;;;;;;5111873;28;20476;-62
2021/07/08 13:48:15;;;;;;;5.28;1.85;;;;;;;;;;5093419;28;20038;-65
2021/07/08 13:50:42;;;;;;;6.80;2.17;;;;;;;;;;5093692;28;20573;-62
2021/07/08 13:53:08;;;;;;;6.13;1.80;;;;;;;;;;5093639;28;20051;-61
2021/07/08 13:55:34;;;;;;;8.43;2.40;;;;;;;;;;5111926;28;20105;-62
2021/07/08 13:58:00;;;;;;;6.25;2.05;;;;;;;;;;5093342;28;20032;-62
2021/07/08 14:00:26;;;;;;;5.85;2.00;;;;;;;;;;5109793;28;20026;-62
2021/07/08 14:02:52;;;;;;;5.35;1.83;;;;;;;;;;5093616;28;20316;-62
2021/07/08 14:05:20;;;;;;;5.57;2.08;;;;;;;;;;5111819;28;20102;-62
2021/07/08 14:07:46;;;;;;;4.15;1.85;;;;;;;;;;5093335;28;20065;-62
2021/07/08 14:10:12;;;;;;;4.45;1.63;;;;;;;;;;5111070;28;20036;-69
2021/07/08 14:12:38;;;;;;;5.25;2.00;;;;;;;;;;5091771;28;20032;-62
2021/07/08 14:15:04;;;;;;;5.30;1.90;;;;;;;;;;5111505;28;20626;-62
2021/07/08 14:17:30;;;;;;;5.93;2.08;;;;;;;;;;5110647;28;20044;-62
2021/07/08 14:19:56;;;;;;;6.53;1.80;;;;;;;;;;5093080;28;20023;-62
2021/07/08 14:22:22;;;;;;;3.75;1.55;;;;;;;;;;5110992;28;20119;-62
2021/07/08 14:24:48;;;;;;;5.78;1.75;;;;;;;;;;5108995;28;20027;-62
2021/07/08 14:27:14;;;;;;;5.88;1.80;;;;;;;;;;5093087;28;20053;-62
2021/07/08 14:29:40;;;;;;;4.80;1.90;;;;;;;;;;5111110;28;20100;-62
2021/07/08 14:32:06;;;;;;;7.45;1.83;;;;;;;;;;5093187;28;20115;-62
2021/07/08 14:34:32;;;;;;;5.28;2.10;;;;;;;;;;5110266;28;20034;-63
2021/07/08 14:36:59;;;;;;;5.80;2.03;;;;;;;;;;5110292;28;20016;-62
2021/07/08 14:39:25;;;;;;;5.50;1.88;;;;;;;;;;5092736;28;20118;-62
2021/07/08 14:42:00;;;;;;;7.35;1.90;;;;;;;;;;5111081;28;20051;-62
2021/07/08 14:44:32;;;;;;;5.22;1.75;;;;;;;;;;5092862;28;20128;-62
2021/07/08 14:46:58;;;;;;;5.82;2.22;;;;;;;;;;5092277;28;20078;-62